Airfield :
LOGIN :

Register | Disclaimer

   EN    FR    IT 

 










Legend :    VFR   Marginal VFR   IFR   Intensive IFR   Very Intensive IFR
Visi :
Ceiling :
>= 8 km
>= 3000ft
5 to 8 km
1000 to 3000 ft
1500m to 5 km
500 to 1000 ft
800 to 1500m
200 to 500 ft
< 800m
< 200 ft
Symbols :   Thunderstorms  Fog  Heavy snow  Heavy precipitations  Wind > 20 kt
SIGMETs :     Misc.  Thunderstorms  Icing  Turbulence  Mountain Waves  Volcanic Ashes







- Airport Elevation : 778 ft
- IATA code : BRQ


LKTB - Brno-Turany

CURRENT METAR :
  • 230330Z 32007KT CAVOK 18/16 Q1012 NOSIG

EXPIRED METARs :
  • 230300Z VRB07KT 9999 -RA NSC 18/16 Q1012 NOSIG
  • 230230Z 31007KT 9999 -RA NSC 18/17 Q1012 NOSIG
  • 230200Z 31009KT 9999 -RA NSC 18/17 Q1012 NOSIG
  • 230130Z 31008KT 9999 -RA NSC 18/17 Q1012 NOSIG
  • 230100Z 32008KT 9999 -RA NSC 18/17 Q1012 NOSIG

TAF TAF LKTB
Valid from the 23 at 00:00 until the 24 at 06:00 UTC


222300Z 2300/2406 34008KT 9999 SCT045
TEMPO 2300/2303 6000 RA SCT040
BECMG 2303/2306 CAVOK
TEMPO 2310/2317 01012G22KT 8000 SHRA SCT050TCU
No reported NOTAMs for that airfield.



MET'MAP, your aeronautical weather chart ! - Copyright ORBIFLY December 2007 - Disclaimer

ORBIFLY MET'MAP TEAM :

Programming & Development : Alexandra Zaïnal
Concept & Development : Baudouin d'Aumeries
Co-Development & Prog : Marc-Olivier Méhu
Technical & hardware support : Manuel Goepfert

Contact : metmap@orbifly.com




SOURCES & CREDITS :

   NOAA